Time;durP1;ratioP1;P1;durP2;ratioP2;P2;SDS_P1;SDS_P2;PMS_P1;PMS_P2;Temp;Humidity;BMP_temperature;BMP_pressure;BME280_temperature;BME280_humidity;BME280_pressure;Samples;Min_cycle;Max_cycle;Signal;HPM_P1;HPM_P2
2022/03/02 00:01:12;;;;;;;12.10;10.93;;;4.40;99.90;;;;;;5052472;28;20220;-66
2022/03/02 00:03:39;;;;;;;15.87;11.73;;;4.40;99.90;;;;;;5051825;28;20260;-66
2022/03/02 00:06:04;;;;;;;13.57;11.90;;;4.40;99.90;;;;;;5053685;28;20174;-66
2022/03/02 00:08:30;;;;;;;13.23;11.83;;;4.40;99.90;;;;;;5053246;28;20182;-68
2022/03/02 00:10:55;;;;;;;16.93;12.00;;;4.40;99.90;;;;;;5053558;28;20193;-67
2022/03/02 00:13:21;;;;;;;16.33;12.50;;;4.30;99.90;;;;;;5052913;28;20179;-67
2022/03/02 00:15:48;;;;;;;13.60;11.77;;;4.20;99.90;;;;;;5053210;28;20652;-67
2022/03/02 00:18:14;;;;;;;13.30;11.83;;;4.10;99.90;;;;;;5053420;28;20174;-67
2022/03/02 00:20:40;;;;;;;14.73;12.00;;;4.00;99.90;;;;;;5052725;28;20576;-67
2022/03/02 00:23:06;;;;;;;13.87;12.30;;;4.00;99.90;;;;;;5052981;28;20258;-67
2022/03/02 00:25:32;;;;;;;12.93;11.57;;;4.00;99.90;;;;;;5053125;28;20171;-67
2022/03/02 00:27:58;;;;;;;13.80;12.33;;;3.90;99.90;;;;;;5053371;28;20686;-67
2022/03/02 00:30:28;;;;;;;13.20;11.27;;;3.90;99.90;;;;;;5053402;28;20194;-67
2022/03/02 00:32:56;;;;;;;14.87;12.40;;;3.80;99.90;;;;;;5052583;28;20183;-66
2022/03/02 00:35:22;;;;;;;18.43;12.20;;;3.70;99.90;;;;;;5052861;28;20178;-67
2022/03/02 00:37:48;;;;;;;14.10;12.60;;;3.70;99.90;;;;;;5052679;28;20183;-67
2022/03/02 00:40:14;;;;;;;15.90;12.43;;;3.60;99.90;;;;;;5052721;28;20551;-66
2022/03/02 00:42:40;;;;;;;12.70;11.40;;;3.50;99.90;;;;;;5052320;28;20214;-66
2022/03/02 00:45:05;;;;;;;17.67;11.70;;;3.50;99.90;;;;;;5051699;28;20229;-66
2022/03/02 00:47:32;;;;;;;15.77;12.13;;;3.40;99.90;;;;;;5052651;28;20277;-67
2022/03/02 00:49:58;;;;;;;15.20;12.33;;;3.40;99.90;;;;;;5052703;28;20226;-68
2022/03/02 00:52:23;;;;;;;14.37;12.97;;;3.30;99.90;;;;;;5052182;28;20482;-68
2022/03/02 00:54:49;;;;;;;14.83;12.00;;;3.20;99.90;;;;;;5052685;28;20201;-67
2022/03/02 00:57:15;;;;;;;12.73;11.30;;;3.00;99.90;;;;;;5051108;28;20178;-67
2022/03/02 00:59:40;;;;;;;13.13;11.70;;;3.00;99.90;;;;;;5051053;28;20244;-67
2022/03/02 01:02:06;;;;;;;14.40;12.30;;;2.90;99.90;;;;;;5052072;28;20275;-67
2022/03/02 01:04:32;;;;;;;13.03;11.40;;;2.80;99.90;;;;;;5052339;28;20163;-65
2022/03/02 01:06:58;;;;;;;12.70;11.23;;;2.80;99.90;;;;;;5052166;28;20668;-67
2022/03/02 01:09:24;;;;;;;12.03;10.97;;;2.80;99.90;;;;;;5051855;28;20265;-67
2022/03/02 01:11:49;;;;;;;12.60;11.27;;;2.80;99.90;;;;;;5052277;28;20583;-67
2022/03/02 01:14:15;;;;;;;14.33;12.83;;;2.70;99.90;;;;;;5051689;28;20175;-68
2022/03/02 01:16:41;;;;;;;16.60;12.17;;;2.70;99.90;;;;;;5052530;28;20680;-67
2022/03/02 01:19:07;;;;;;;16.43;13.93;;;2.60;99.90;;;;;;5052078;28;20194;-65
2022/03/02 01:21:32;;;;;;;14.00;12.70;;;2.60;99.90;;;;;;5051493;28;20638;-66
2022/03/02 01:23:59;;;;;;;14.47;12.83;;;2.60;99.90;;;;;;5052086;28;20261;-67
2022/03/02 01:26:26;;;;;;;14.37;13.07;;;2.60;99.90;;;;;;5051905;28;20181;-65
2022/03/02 01:28:54;;;;;;;14.60;13.10;;;2.60;99.90;;;;;;5052109;28;20201;-66
2022/03/02 01:31:24;;;;;;;18.93;15.13;;;2.60;99.90;;;;;;5051806;28;20170;-67
2022/03/02 01:33:51;;;;;;;13.73;12.30;;;2.50;99.90;;;;;;5050096;28;20248;-66
2022/03/02 01:36:18;;;;;;;14.13;12.53;;;2.50;99.90;;;;;;5052165;28;20574;-67
2022/03/02 01:38:43;;;;;;;14.13;12.77;;;2.50;99.90;;;;;;5051183;28;20210;-66
2022/03/02 01:41:11;;;;;;;12.40;11.20;;;2.40;99.90;;;;;;5051972;28;20199;-65
2022/03/02 01:43:37;;;;;;;14.07;11.70;;;2.40;99.90;;;;;;5049546;28;20266;-65
2022/03/02 01:46:03;;;;;;;15.37;13.77;;;2.50;99.90;;;;;;5052404;28;20210;-66
2022/03/02 01:48:28;;;;;;;12.83;11.57;;;2.40;99.90;;;;;;5052286;28;20198;-67
2022/03/02 01:50:54;;;;;;;12.03;10.77;;;2.40;99.90;;;;;;5052174;28;20171;-66
2022/03/02 01:53:19;;;;;;;12.30;11.00;;;2.40;99.90;;;;;;5051214;28;20320;-66
2022/03/02 01:55:45;;;;;;;13.50;11.77;;;2.40;99.90;;;;;;5051535;28;20190;-67
2022/03/02 01:58:11;;;;;;;12.83;11.53;;;2.40;99.90;;;;;;5051685;28;20182;-68
2022/03/02 02:00:36;;;;;;;12.13;11.03;;;2.30;99.90;;;;;;5051380;28;20198;-66
2022/03/02 02:03:02;;;;;;;12.97;11.50;;;2.30;99.90;;;;;;5051195;28;20644;-66
2022/03/02 02:05:28;;;;;;;13.60;11.97;;;2.30;99.90;;;;;;5051024;28;20171;-66
2022/03/02 02:07:54;;;;;;;12.47;11.20;;;2.30;99.90;;;;;;5051624;28;20175;-67
2022/03/02 02:10:19;;;;;;;17.07;11.83;;;2.20;99.90;;;;;;5051185;28;20652;-67
2022/03/02 02:12:45;;;;;;;13.73;12.20;;;2.10;99.90;;;;;;5051115;28;20181;-67
2022/03/02 02:15:11;;;;;;;13.90;11.60;;;2.10;99.90;;;;;;5051298;28;20175;-67
2022/03/02 02:17:37;;;;;;;12.00;10.80;;;2.10;99.90;;;;;;5051310;28;20209;-67
2022/03/02 02:20:06;;;;;;;12.70;11.40;;;2.10;99.90;;;;;;5051044;28;20214;-67
2022/03/02 02:22:36;;;;;;;13.43;11.37;;;2.10;99.90;;;;;;5051006;28;20640;-67
2022/03/02 02:25:03;;;;;;;12.27;11.07;;;2.10;99.90;;;;;;5052322;28;20577;-68
2022/03/02 02:27:28;;;;;;;13.30;12.00;;;2.10;99.90;;;;;;5055241;28;20189;-66
2022/03/02 02:29:55;;;;;;;13.27;11.93;;;2.00;99.90;;;;;;5055277;28;20202;-68
2022/03/02 02:32:21;;;;;;;14.13;11.87;;;1.80;99.90;;;;;;5055160;28;20171;-67
2022/03/02 02:34:47;;;;;;;14.37;12.87;;;1.70;99.90;;;;;;5055035;28;20186;-67
2022/03/02 02:37:13;;;;;;;14.43;12.40;;;1.60;99.90;;;;;;5055230;28;20175;-64
2022/03/02 02:39:39;;;;;;;12.87;11.57;;;1.50;99.90;;;;;;5075242;23;20717;-67
2022/03/02 02:42:07;;;;;;;15.07;13.07;;;1.50;99.90;;;;;;5054843;28;20210;-67
2022/03/02 02:44:34;;;;;;;16.73;12.83;;;1.50;99.90;;;;;;5037330;28;20200;-67
2022/03/02 02:47:00;;;;;;;14.23;11.70;;;1.40;99.90;;;;;;5044835;28;20175;-68
2022/03/02 02:49:27;;;;;;;14.60;12.90;;;1.50;99.90;;;;;;5053801;28;20538;-67
2022/03/02 02:51:56;;;;;;;14.30;12.67;;;1.50;99.90;;;;;;5052051;28;20179;-68
2022/03/02 02:54:22;;;;;;;14.80;12.83;;;1.50;99.90;;;;;;5053202;28;20273;-65
2022/03/02 02:56:48;;;;;;;16.80;12.23;;;1.50;99.90;;;;;;5054857;28;20297;-65
2022/03/02 02:59:14;;;;;;;14.67;12.63;;;1.60;99.90;;;;;;5054574;28;20201;-64
2022/03/02 03:01:39;;;;;;;13.27;11.97;;;1.60;99.90;;;;;;5054681;28;20634;-68
2022/03/02 03:04:06;;;;;;;13.30;12.00;;;1.70;99.90;;;;;;5053110;28;20175;-68
2022/03/02 03:06:32;;;;;;;13.97;12.00;;;1.70;99.90;;;;;;5053742;28;20654;-65
2022/03/02 03:08:57;;;;;;;17.90;11.60;;;1.80;99.90;;;;;;5054305;28;20671;-67
2022/03/02 03:11:23;;;;;;;13.03;11.23;;;1.90;99.90;;;;;;5052944;28;20185;-66
2022/03/02 03:13:49;;;;;;;12.47;11.30;;;1.80;99.90;;;;;;5052793;28;20274;-66
2022/03/02 03:16:14;;;;;;;12.23;11.17;;;1.90;99.90;;;;;;5054382;28;20210;-66
2022/03/02 03:18:40;;;;;;;12.57;11.17;;;2.00;99.90;;;;;;5054186;28;20190;-66
2022/03/02 03:21:06;;;;;;;12.10;11.00;;;2.00;99.90;;;;;;5054266;28;20277;-66
2022/03/02 03:23:31;;;;;;;13.23;11.60;;;2.00;99.90;;;;;;5054397;28;20209;-66
2022/03/02 03:25:57;;;;;;;13.33;11.90;;;2.10;99.90;;;;;;5055023;28;20198;-65
2022/03/02 03:28:22;;;;;;;15.93;12.67;;;2.10;99.90;;;;;;5055425;28;20174;-66
2022/03/02 03:30:48;;;;;;;13.23;11.83;;;2.10;99.90;;;;;;5054196;28;20566;-67
2022/03/02 03:33:13;;;;;;;15.50;11.97;;;2.20;99.90;;;;;;5066407;28;20187;-66
2022/03/02 03:35:39;;;;;;;12.67;11.43;;;2.30;99.90;;;;;;5070090;28;20179;-66
2022/03/02 03:38:05;;;;;;;13.20;11.90;;;2.30;99.90;;;;;;5066816;28;20175;-66
2022/03/02 03:40:31;;;;;;;12.17;11.07;;;2.30;99.90;;;;;;5069148;28;20266;-66
2022/03/02 03:42:57;;;;;;;14.30;12.87;;;2.40;99.90;;;;;;5066826;28;20242;-66
2022/03/02 03:45:23;;;;;;;16.43;12.30;;;2.40;99.90;;;;;;5066949;28;20675;-66
2022/03/02 03:47:49;;;;;;;13.57;12.17;;;2.40;99.90;;;;;;5061669;28;20183;-66
2022/03/02 03:50:15;;;;;;;13.67;12.37;;;2.50;99.90;;;;;;5052520;28;20195;-67
2022/03/02 03:52:42;;;;;;;14.27;12.67;;;2.50;99.90;;;;;;5053752;28;20183;-66
2022/03/02 03:55:09;;;;;;;14.20;12.73;;;2.50;99.90;;;;;;5054211;28;20171;-66
2022/03/02 03:57:35;;;;;;;14.90;13.60;;;2.50;99.90;;;;;;5052430;28;20210;-66
2022/03/02 04:00:01;;;;;;;15.87;14.47;;;2.60;99.90;;;;;;5052518;28;20239;-67
2022/03/02 04:02:26;;;;;;;16.53;14.87;;;2.60;99.90;;;;;;5053401;28;20170;-66
2022/03/02 04:04:52;;;;;;;14.87;13.30;;;2.70;99.90;;;;;;5053673;28;20703;-66
2022/03/02 04:07:17;;;;;;;13.77;12.37;;;2.70;99.90;;;;;;5053631;28;20175;-66
2022/03/02 04:09:43;;;;;;;16.37;14.77;;;2.80;99.90;;;;;;5051922;28;20197;-67
2022/03/02 04:12:09;;;;;;;17.27;12.97;;;2.80;99.90;;;;;;5052197;28;20179;-66
2022/03/02 04:14:34;;;;;;;16.53;14.83;;;2.80;99.90;;;;;;5051942;28;20178;-66
2022/03/02 04:17:00;;;;;;;14.50;13.10;;;2.90;99.90;;;;;;5053561;28;20262;-66
2022/03/02 04:19:26;;;;;;;14.53;12.07;;;2.90;99.90;;;;;;5053008;28;20195;-66
2022/03/02 04:21:51;;;;;;;13.33;12.03;;;2.90;99.90;;;;;;5051963;28;20671;-67
2022/03/02 04:24:17;;;;;;;12.27;11.13;;;3.00;99.90;;;;;;5051821;28;20258;-67
2022/03/02 04:26:42;;;;;;;14.03;12.63;;;3.00;99.90;;;;;;5051790;28;20547;-67
2022/03/02 04:29:08;;;;;;;12.27;11.07;;;3.00;99.90;;;;;;5053092;28;20190;-65
2022/03/02 04:31:34;;;;;;;12.27;11.17;;;3.00;99.90;;;;;;5051622;28;20333;-65
2022/03/02 04:33:59;;;;;;;13.37;12.10;;;3.10;99.90;;;;;;5051379;28;20678;-66
2022/03/02 04:36:25;;;;;;;12.43;11.30;;;3.10;99.90;;;;;;5051582;28;20232;-66
2022/03/02 04:38:51;;;;;;;12.13;11.03;;;3.10;99.90;;;;;;5051634;28;20187;-66
2022/03/02 04:41:16;;;;;;;13.07;11.67;;;3.10;99.90;;;;;;5051714;28;20207;-67
2022/03/02 04:43:43;;;;;;;13.80;12.40;;;3.10;99.90;;;;;;5051178;28;20186;-66
2022/03/02 04:46:09;;;;;;;14.37;12.43;;;3.10;99.90;;;;;;5051918;28;20171;-66
2022/03/02 04:48:34;;;;;;;13.30;12.13;;;3.20;99.90;;;;;;5050667;28;20570;-66
2022/03/02 04:51:00;;;;;;;14.50;13.10;;;3.20;99.90;;;;;;5058712;28;20213;-66
2022/03/02 04:53:25;;;;;;;14.87;12.40;;;3.20;99.90;;;;;;5072141;28;20210;-66
2022/03/02 04:55:52;;;;;;;13.83;12.27;;;3.20;99.90;;;;;;5069589;28;20225;-67
2022/03/02 04:58:19;;;;;;;12.73;11.53;;;3.20;99.90;;;;;;5054282;28;20258;-66
2022/03/02 05:00:45;;;;;;;13.67;12.17;;;3.20;99.90;;;;;;5051243;28;20327;-68
2022/03/02 05:03:10;;;;;;;15.70;12.13;;;3.10;99.90;;;;;;5052150;28;20179;-66
2022/03/02 05:05:38;;;;;;;13.93;12.60;;;3.10;99.90;;;;;;5052701;28;20167;-66
2022/03/02 05:08:05;;;;;;;16.60;13.27;;;3.00;99.90;;;;;;5052428;28;20171;-66
2022/03/02 05:10:31;;;;;;;13.60;12.20;;;3.00;99.90;;;;;;5050793;28;20202;-66
2022/03/02 05:12:57;;;;;;;15.47;12.43;;;3.00;99.90;;;;;;5051198;28;20175;-66
2022/03/02 05:15:24;;;;;;;14.07;12.80;;;3.00;99.90;;;;;;5052082;28;20210;-66
2022/03/02 05:17:50;;;;;;;21.23;14.73;;;3.00;99.90;;;;;;5052264;28;20178;-66
2022/03/02 05:20:17;;;;;;;15.47;14.20;;;3.00;99.90;;;;;;5051888;28;20198;-66
2022/03/02 05:22:44;;;;;;;14.97;13.63;;;3.00;99.90;;;;;;5050902;28;20194;-66
2022/03/02 05:25:12;;;;;;;15.50;13.97;;;3.00;99.90;;;;;;5050570;28;20167;-66
2022/03/02 05:27:38;;;;;;;14.93;13.50;;;2.90;99.90;;;;;;5046191;28;20523;-66
2022/03/02 05:30:06;;;;;;;15.63;14.20;;;3.00;99.90;;;;;;5051918;28;20568;-66
2022/03/02 05:32:31;;;;;;;15.63;14.17;;;3.10;99.90;;;;;;5051605;28;20178;-66
2022/03/02 05:34:57;;;;;;;15.97;14.27;;;3.10;99.90;;;;;;5051950;28;20175;-66
2022/03/02 05:37:23;;;;;;;16.20;14.47;;;3.10;99.90;;;;;;5052168;28;20202;-66
2022/03/02 05:39:48;;;;;;;14.17;12.90;;;3.10;99.90;;;;;;5050454;28;20569;-66
2022/03/02 05:42:14;;;;;;;14.33;12.93;;;3.10;99.90;;;;;;5050494;28;20198;-66
2022/03/02 05:44:40;;;;;;;14.30;11.80;;;3.10;99.90;;;;;;5050406;28;20186;-66
2022/03/02 05:47:06;;;;;;;13.83;11.63;;;3.10;99.90;;;;;;5052104;28;20228;-66
2022/03/02 05:49:32;;;;;;;14.80;12.37;;;3.20;99.90;;;;;;5051381;28;20195;-66
2022/03/02 05:51:57;;;;;;;14.63;13.13;;;3.10;99.90;;;;;;5050626;28;20175;-66
2022/03/02 05:54:23;;;;;;;12.83;11.47;;;3.10;99.90;;;;;;5051388;28;20175;-66
2022/03/02 05:56:49;;;;;;;12.77;11.47;;;3.20;99.90;;;;;;5049484;28;20179;-66
2022/03/02 05:59:16;;;;;;;16.40;13.00;;;3.20;99.90;;;;;;5049664;28;20199;-66
2022/03/02 06:01:44;;;;;;;13.53;12.13;;;3.20;99.90;;;;;;5049945;28;20755;-68
2022/03/02 06:04:11;;;;;;;14.73;13.33;;;3.20;99.90;;;;;;5050832;28;20193;-66
2022/03/02 06:06:37;;;;;;;15.60;14.00;;;3.20;99.90;;;;;;5049518;28;20175;-67
2022/03/02 06:09:06;;;;;;;15.10;13.80;;;3.20;99.90;;;;;;5051074;28;20217;-66
2022/03/02 06:11:32;;;;;;;13.97;12.53;;;3.20;99.90;;;;;;5050014;28;20181;-65
2022/03/02 06:13:58;;;;;;;13.10;11.80;;;3.20;99.90;;;;;;5049600;28;20265;-69
2022/03/02 06:16:24;;;;;;;13.77;12.33;;;3.20;99.90;;;;;;5050134;28;20265;-65
2022/03/02 06:18:51;;;;;;;13.40;12.10;;;3.10;99.90;;;;;;5049806;28;20175;-65
2022/03/02 06:21:28;;;;;;;14.17;12.13;;;3.10;99.90;;;;;;5050252;28;20202;-68
2022/03/02 06:23:54;;;;;;;13.33;12.07;;;3.00;99.90;;;;;;5050887;28;20253;-67
2022/03/02 06:26:22;;;;;;;15.10;13.17;;;3.00;99.90;;;;;;5050198;28;20193;-68
2022/03/02 06:28:48;;;;;;;13.60;12.40;;;2.90;99.90;;;;;;5050333;28;20658;-68
2022/03/02 06:31:14;;;;;;;13.43;12.13;;;3.00;99.90;;;;;;5051335;28;20675;-68
2022/03/02 06:33:40;;;;;;;14.13;12.10;;;2.90;99.90;;;;;;5049637;28;20325;-68
2022/03/02 06:36:06;;;;;;;14.73;13.00;;;2.90;99.90;;;;;;5051483;28;20240;-68
2022/03/02 06:38:31;;;;;;;16.10;14.40;;;2.90;99.90;;;;;;5051285;28;20190;-66
2022/03/02 06:41:22;;;;;;;18.27;15.17;;;2.90;99.90;;;;;;5049886;28;20250;-66
2022/03/02 06:44:19;;;;;;;13.47;12.03;;;2.90;99.90;;;;;;5049328;28;20240;-66
2022/03/02 06:47:09;;;;;;;13.20;11.87;;;2.90;99.90;;;;;;5049301;28;20257;-66
2022/03/02 06:49:45;;;;;;;13.53;12.10;;;2.90;99.90;;;;;;5049635;28;20543;-65
2022/03/02 06:52:12;;;;;;;13.43;11.97;;;2.90;99.90;;;;;;5049017;28;20242;-65
2022/03/02 06:54:42;;;;;;;13.33;11.97;;;3.00;99.90;;;;;;5049726;28;20244;-65
2022/03/02 06:57:13;;;;;;;13.97;12.67;;;3.10;99.90;;;;;;5051336;28;20175;-65
2022/03/02 06:59:43;;;;;;;13.00;11.70;;;3.10;99.90;;;;;;5050723;28;20198;-67
2022/03/02 07:02:12;;;;;;;14.33;12.60;;;3.30;99.90;;;;;;5049705;28;20282;-67
2022/03/02 07:04:43;;;;;;;17.70;12.77;;;3.40;99.90;;;;;;5049309;28;20195;-67
2022/03/02 07:07:11;;;;;;;15.33;12.83;;;3.40;99.90;;;;;;5051290;28;20533;-68
2022/03/02 07:09:38;;;;;;;15.50;12.77;;;3.50;99.90;;;;;;5047047;28;20191;-67
2022/03/02 07:12:05;;;;;;;13.60;12.23;;;3.60;99.90;;;;;;5051833;28;20269;-67
2022/03/02 07:14:35;;;;;;;16.00;14.30;;;3.70;99.90;;;;;;5052744;28;20197;-67
2022/03/02 07:17:02;;;;;;;15.53;13.27;;;3.80;99.90;;;;;;5054811;28;20178;-67
2022/03/02 07:19:28;;;;;;;21.37;12.67;;;3.80;99.90;;;;;;5054574;28;20597;-67
2022/03/02 07:22:03;;;;;;;15.73;11.90;;;3.90;99.90;;;;;;5052988;28;20224;-67
2022/03/02 07:24:35;;;;;;;14.17;12.10;;;3.90;99.90;;;;;;5052924;28;20193;-67
2022/03/02 07:27:01;;;;;;;14.83;12.40;;;4.00;99.90;;;;;;5054699;28;20182;-67
2022/03/02 07:29:28;;;;;;;12.63;11.30;;;4.10;99.90;;;;;;5053922;28;20211;-68
2022/03/02 07:31:56;;;;;;;13.17;11.87;;;4.30;99.90;;;;;;5054326;28;20175;-67
2022/03/02 07:34:24;;;;;;;15.87;12.23;;;4.50;99.90;;;;;;5054293;28;20167;-67
2022/03/02 07:36:51;;;;;;;15.57;13.97;;;4.70;99.90;;;;;;5052625;28;20216;-67
2022/03/02 07:39:17;;;;;;;13.57;11.40;;;5.10;99.90;;;;;;5054428;28;20198;-67
2022/03/02 07:41:43;;;;;;;12.63;11.37;;;5.50;99.90;;;;;;5053881;28;20210;-67
2022/03/02 07:44:09;;;;;;;12.47;11.23;;;5.90;99.90;;;;;;5053745;28;20174;-68
2022/03/02 07:46:35;;;;;;;14.13;12.00;;;6.20;99.90;;;;;;5049171;28;20572;-67
2022/03/02 07:49:02;;;;;;;16.13;11.30;;;6.60;99.90;;;;;;5033005;28;20198;-65
2022/03/02 07:51:28;;;;;;;12.33;11.17;;;7.10;99.90;;;;;;5055948;28;20189;-64
2022/03/02 07:54:01;;;;;;;13.07;11.67;;;7.50;99.90;;;;;;5056561;28;20648;-65
2022/03/02 07:56:28;;;;;;;11.97;10.83;;;7.90;99.90;;;;;;5059184;28;20201;-65
2022/03/02 07:59:03;;;;;;;13.90;10.90;;;8.20;99.90;;;;;;5052772;28;20265;-66
2022/03/02 08:01:34;;;;;;;20.00;12.50;;;8.60;99.90;;;;;;5053226;28;20206;-65
2022/03/02 08:04:06;;;;;;;15.27;12.43;;;9.00;99.90;;;;;;5050488;28;20206;-65
2022/03/02 08:06:40;;;;;;;12.80;11.30;;;9.30;99.90;;;;;;5053628;28;20196;-65
2022/03/02 08:09:08;;;;;;;12.20;10.90;;;9.60;99.90;;;;;;5052143;28;20202;-65
2022/03/02 08:11:35;;;;;;;12.53;11.00;;;10.00;99.60;;;;;;5052415;28;20648;-66
2022/03/02 08:14:01;;;;;;;11.67;10.47;;;10.50;99.10;;;;;;5051368;28;20191;-65
2022/03/02 08:16:28;;;;;;;16.10;11.43;;;10.90;97.70;;;;;;5052161;28;20677;-65
2022/03/02 08:18:55;;;;;;;13.03;10.57;;;11.00;96.80;;;;;;5053193;28;20182;-66
2022/03/02 08:21:22;;;;;;;12.03;10.73;;;11.10;96.40;;;;;;5051990;28;20217;-66
2022/03/02 08:23:50;;;;;;;11.93;10.50;;;11.30;96.40;;;;;;5050527;28;20279;-65
2022/03/02 08:26:20;;;;;;;11.60;10.40;;;11.50;96.20;;;;;;5053203;28;20210;-65
2022/03/02 08:28:46;;;;;;;12.37;11.07;;;11.70;96.20;;;;;;5051578;28;20175;-66
2022/03/02 08:31:12;;;;;;;11.57;10.40;;;11.90;96.00;;;;;;5052019;28;20182;-66
2022/03/02 08:33:41;;;;;;;11.90;10.50;;;12.10;95.80;;;;;;5052470;28;20552;-65
2022/03/02 08:36:09;;;;;;;16.17;10.93;;;12.00;95.10;;;;;;5053086;28;20180;-66
2022/03/02 08:38:40;;;;;;;12.30;10.63;;;12.00;94.70;;;;;;5052693;28;20540;-66
2022/03/02 08:41:07;;;;;;;12.10;10.87;;;12.10;95.00;;;;;;5052479;28;20206;-66
2022/03/02 08:43:34;;;;;;;13.13;10.73;;;12.20;94.90;;;;;;5050995;28;20174;-66
2022/03/02 08:46:00;;;;;;;13.60;10.23;;;12.60;94.80;;;;;;5052856;28;20179;-66
2022/03/02 08:48:26;;;;;;;11.50;10.20;;;12.80;93.50;;;;;;5052789;28;20273;-68
2022/03/02 08:50:56;;;;;;;11.53;10.33;;;13.10;91.90;;;;;;5053078;28;20229;-66
2022/03/02 08:53:25;;;;;;;10.30;9.40;;;13.10;91.70;;;;;;5051474;28;20636;-68
2022/03/02 08:55:53;;;;;;;11.67;10.27;;;13.10;87.10;;;;;;5051206;28;20182;-68
2022/03/02 08:58:19;;;;;;;13.83;11.77;;;13.10;90.40;;;;;;5051164;28;20198;-68
2022/03/02 09:00:45;;;;;;;11.57;10.37;;;13.20;86.60;;;;;;5052517;28;20218;-65
2022/03/02 09:03:15;;;;;;;13.03;11.30;;;13.50;87.00;;;;;;5051783;28;20256;-65
2022/03/02 09:05:42;;;;;;;11.50;10.27;;;13.60;81.90;;;;;;5051079;28;20557;-66
2022/03/02 09:08:08;;;;;;;10.40;9.40;;;13.60;84.60;;;;;;5052359;28;20175;-68
2022/03/02 09:10:35;;;;;;;11.47;10.40;;;13.60;81.30;;;;;;5052346;28;20201;-68
2022/03/02 09:13:02;;;;;;;15.13;10.10;;;13.70;82.90;;;;;;5050567;28;20174;-68
2022/03/02 09:15:28;;;;;;;10.80;9.70;;;13.70;79.30;;;;;;5050966;28;20187;-67
2022/03/02 09:17:55;;;;;;;10.40;9.10;;;13.70;78.30;;;;;;5050723;28;20186;-68
2022/03/02 09:20:23;;;;;;;11.03;9.20;;;13.80;78.50;;;;;;5050878;28;20253;-68
2022/03/02 09:22:52;;;;;;;10.47;9.47;;;13.80;79.90;;;;;;5051497;28;20185;-67
2022/03/02 09:25:18;;;;;;;9.93;8.93;;;13.80;77.00;;;;;;5052167;28;20182;-68
2022/03/02 09:27:46;;;;;;;12.10;9.33;;;13.70;74.50;;;;;;5050096;28;20644;-67
2022/03/02 09:30:12;;;;;;;10.60;9.50;;;13.70;76.30;;;;;;5051614;28;20194;-68
2022/03/02 09:32:42;;;;;;;10.47;9.47;;;13.60;78.60;;;;;;5051164;28;20191;-68
2022/03/02 09:35:13;;;;;;;10.53;9.50;;;13.60;77.50;;;;;;5050369;28;20265;-68
2022/03/02 09:37:42;;;;;;;9.87;8.87;;;13.80;77.80;;;;;;5051568;28;20178;-68
2022/03/02 09:40:19;;;;;;;13.47;9.73;;;13.80;76.20;;;;;;5051681;28;20215;-67
2022/03/02 09:43:01;;;;;;;10.30;9.33;;;13.70;75.20;;;;;;5050982;28;20174;-68
2022/03/02 09:45:29;;;;;;;9.97;9.00;;;13.70;75.00;;;;;;5051531;28;20683;-67
2022/03/02 09:47:58;;;;;;;9.33;8.43;;;14.00;80.00;;;;;;5051229;28;20221;-68
2022/03/02 09:50:35;;;;;;;10.53;9.57;;;14.20;75.00;;;;;;5051310;28;20195;-67
2022/03/02 09:53:08;;;;;;;11.07;10.07;;;14.20;72.40;;;;;;5050816;28;20274;-68
2022/03/02 09:55:35;;;;;;;11.70;10.60;;;14.00;71.40;;;;;;5050355;28;20469;-68
2022/03/02 09:58:01;;;;;;;13.27;9.50;;;14.00;73.70;;;;;;5051212;28;20346;-67
2022/03/02 10:00:28;;;;;;;9.97;9.13;;;14.20;74.30;;;;;;5051327;28;20663;-68
2022/03/02 10:02:57;;;;;;;10.80;9.67;;;14.40;75.20;;;;;;5050952;28;20704;-65
2022/03/02 10:05:29;;;;;;;10.50;9.50;;;14.60;73.90;;;;;;5051747;28;20652;-65
2022/03/02 10:08:03;;;;;;;9.17;8.27;;;14.90;75.70;;;;;;5050206;28;20202;-65
2022/03/02 10:10:36;;;;;;;9.97;9.07;;;15.10;73.70;;;;;;5051074;28;20194;-67
2022/03/02 10:13:04;;;;;;;10.47;9.40;;;15.20;70.00;;;;;;5050926;28;20209;-67
2022/03/02 10:15:31;;;;;;;9.60;8.60;;;15.10;68.30;;;;;;5051107;28;20640;-68
2022/03/02 10:17:59;;;;;;;9.67;8.73;;;15.00;71.80;;;;;;5051430;28;20592;-67
2022/03/02 10:20:27;;;;;;;9.57;8.67;;;14.90;71.80;;;;;;5051219;28;20194;-67
2022/03/02 10:23:21;;;;;;;9.60;8.63;;;15.20;70.50;;;;;;5050930;28;20182;-67
2022/03/02 10:25:54;;;;;;;9.40;8.50;;;15.30;69.50;;;;;;5049742;28;20175;-66
2022/03/02 10:28:28;;;;;;;9.20;8.40;;;15.30;66.10;;;;;;5049763;28;20188;-66
2022/03/02 10:31:22;;;;;;;9.13;8.23;;;15.40;67.60;;;;;;5050900;28;20210;-67
2022/03/02 10:34:07;;;;;;;8.50;7.70;;;15.90;67.80;;;;;;5021433;28;20191;-66
2022/03/02 10:36:42;;;;;;;10.10;9.10;;;16.10;67.80;;;;;;5050897;28;20528;-66
2022/03/02 10:39:34;;;;;;;8.90;8.10;;;16.30;66.40;;;;;;5051298;28;20233;-66
2022/03/02 10:42:05;;;;;;;10.33;8.70;;;16.50;68.40;;;;;;5050662;28;20218;-66
2022/03/02 10:44:52;;;;;;;9.83;8.17;;;16.20;64.10;;;;;;5050978;28;20229;-66
2022/03/02 10:47:21;;;;;;;8.97;8.17;;;16.00;64.50;;;;;;5054140;28;20646;-67
2022/03/02 10:49:48;;;;;;;9.37;8.47;;;16.10;63.40;;;;;;5054838;28;20824;-66
2022/03/02 10:52:14;;;;;;;9.53;8.70;;;16.00;65.00;;;;;;5054637;28;20210;-67
2022/03/02 10:54:41;;;;;;;10.07;8.77;;;15.80;63.00;;;;;;5053355;28;20232;-67
2022/03/02 10:57:11;;;;;;;12.87;9.30;;;15.60;65.30;;;;;;5054713;28;20274;-67
2022/03/02 10:59:42;;;;;;;10.10;9.20;;;15.40;64.50;;;;;;5054592;28;20260;-67
2022/03/02 11:02:10;;;;;;;9.07;8.27;;;15.60;62.10;;;;;;5054328;28;20206;-67
2022/03/02 11:04:38;;;;;;;9.60;8.73;;;16.10;64.30;;;;;;5054538;28;20182;-67
2022/03/02 11:07:04;;;;;;;9.20;8.40;;;16.10;60.20;;;;;;5053326;28;20178;-67
2022/03/02 11:09:34;;;;;;;9.10;8.23;;;15.90;58.80;;;;;;5053188;28;20688;-67
2022/03/02 11:12:00;;;;;;;10.47;9.57;;;15.40;62.80;;;;;;5054297;28;20601;-67
2022/03/02 11:14:26;;;;;;;10.03;9.20;;;15.50;63.10;;;;;;5054380;28;20257;-67
2022/03/02 11:17:14;;;;;;;9.43;8.50;;;15.80;60.40;;;;;;5054536;28;20209;-67
2022/03/02 11:19:44;;;;;;;9.13;8.23;;;16.00;61.60;;;;;;5052829;28;20202;-67
2022/03/02 11:22:13;;;;;;;9.73;8.93;;;16.20;63.50;;;;;;5052725;28;20309;-67
2022/03/02 11:24:39;;;;;;;10.73;8.77;;;16.10;61.60;;;;;;5053967;28;20531;-67
2022/03/02 11:27:05;;;;;;;9.00;8.20;;;16.10;59.30;;;;;;5054567;28;20266;-67
2022/03/02 11:29:31;;;;;;;9.87;8.87;;;16.50;59.50;;;;;;5053760;28;20269;-67
2022/03/02 11:31:57;;;;;;;11.37;8.53;;;16.40;58.90;;;;;;5052895;28;20182;-68
2022/03/02 11:34:29;;;;;;;10.77;9.13;;;16.10;57.10;;;;;;5054161;28;20644;-67
2022/03/02 11:37:04;;;;;;;9.27;8.47;;;15.90;57.20;;;;;;5052969;28;20182;-67
2022/03/02 11:39:30;;;;;;;10.03;9.00;;;15.80;59.60;;;;;;5052316;28;20225;-67
2022/03/02 11:42:05;;;;;;;10.07;9.17;;;15.80;57.60;;;;;;5052639;28;20210;-67
2022/03/02 11:44:39;;;;;;;9.13;8.33;;;15.80;56.30;;;;;;5053818;28;20178;-67
2022/03/02 11:47:15;;;;;;;9.17;8.37;;;16.10;58.50;;;;;;5052964;28;20179;-67
2022/03/02 11:49:47;;;;;;;8.97;8.17;;;16.00;56.80;;;;;;5057912;28;20237;-67
2022/03/02 11:52:24;;;;;;;8.83;8.10;;;15.90;55.60;;;;;;5068821;28;20212;-67
2022/03/02 11:54:55;;;;;;;8.70;7.90;;;16.20;57.90;;;;;;5056557;28;20205;-67
2022/03/02 11:57:22;;;;;;;9.27;8.43;;;16.40;56.60;;;;;;5056513;28;20217;-67
2022/03/02 11:59:49;;;;;;;9.10;8.30;;;16.20;56.90;;;;;;5053901;28;20199;-67
2022/03/02 12:02:18;;;;;;;9.67;8.70;;;16.00;56.80;;;;;;5052974;28;20210;-67
2022/03/02 12:05:05;;;;;;;9.27;8.40;;;16.00;59.40;;;;;;5051816;28;20191;-67
2022/03/02 12:07:43;;;;;;;13.27;8.47;;;16.50;60.20;;;;;;5053195;28;20170;-67
2022/03/02 12:10:23;;;;;;;9.10;8.17;;;17.00;58.70;;;;;;5053316;28;20203;-67
2022/03/02 12:12:50;;;;;;;9.10;8.20;;;17.20;56.60;;;;;;5053378;28;20182;-67
2022/03/02 12:15:18;;;;;;;9.13;8.33;;;17.50;54.30;;;;;;5053344;28;20186;-67
2022/03/02 12:17:45;;;;;;;8.80;7.90;;;17.60;56.40;;;;;;5051567;28;20522;-67
2022/03/02 12:20:17;;;;;;;8.90;8.00;;;17.90;57.40;;;;;;5053399;28;20690;-67
2022/03/02 12:22:51;;;;;;;8.93;8.10;;;17.90;56.40;;;;;;5051114;28;20210;-67
2022/03/02 12:25:20;;;;;;;8.90;8.10;;;17.60;53.70;;;;;;5053579;28;20178;-67
2022/03/02 12:28:04;;;;;;;9.67;8.67;;;17.60;55.90;;;;;;5051463;28;20262;-67
2022/03/02 12:30:32;;;;;;;8.83;8.00;;;17.80;54.10;;;;;;5051640;28;20205;-67
2022/03/02 12:32:58;;;;;;;10.30;8.23;;;17.80;54.70;;;;;;5051387;28;20193;-67
2022/03/02 12:35:25;;;;;;;10.63;8.33;;;17.80;54.50;;;;;;5051719;28;20553;-67
2022/03/02 12:37:52;;;;;;;8.65;7.72;;;18.00;56.20;;;;;;5052518;28;20183;-67
2022/03/02 12:40:19;;;;;;;9.13;8.20;;;18.00;54.10;;;;;;5052717;28;20206;-66
2022/03/02 12:42:46;;;;;;;8.63;7.90;;;18.10;54.30;;;;;;5052741;28;20174;-66